Zanjan, Iran
Current Conditions -  °F | °C
As of 7:30 PM on Monday 24 Nov 2014 (Local Time) from OIGG Reporting Station
Moderate Rain Moderate Rain  
Wind Chill: 50°   Ceiling: 6000
Heat Index: 50°   Visibility: 2.5mi
Dew Point: 50°   Wind: 7mph
Humidity: 100%   Direction: 300°WNW
Pressure: 30.3"   Gusts: NA
Location:  36.67°N, 48.5°E
Report Text: OIGG 241630Z 30006KT 4000 RA SCT010CB SCT015OVC060 10/10 Q1026
Loading
Personal Weather Stations






























Interactive Weather Map New forecast layout! Learn more

10-Day Weather Forecast

Advertisements
Track Severe Weather on mobile